createdAt,value
2018-07-30T00:01:31.755Z,23.70
2018-07-30T00:04:00.486Z,23.70
2018-07-30T00:06:29.132Z,23.60
2018-07-30T00:08:59.240Z,23.60
2018-07-30T00:11:28.441Z,23.50
2018-07-30T00:13:57.237Z,23.50
2018-07-30T00:16:26.022Z,23.40
2018-07-30T00:18:54.847Z,23.40
2018-07-30T00:21:23.698Z,23.50
2018-07-30T00:23:53.009Z,23.50
2018-07-30T00:26:22.791Z,23.50
2018-07-30T00:28:51.611Z,23.50
2018-07-30T00:31:20.883Z,23.50
2018-07-30T00:33:49.849Z,23.40
2018-07-30T00:36:18.697Z,23.50
2018-07-30T00:38:47.715Z,23.40
2018-07-30T00:41:16.866Z,23.40
2018-07-30T00:43:45.655Z,23.30
2018-07-30T00:46:14.722Z,23.30
2018-07-30T00:48:43.832Z,23.30
2018-07-30T00:51:12.660Z,23.30
2018-07-30T00:53:41.212Z,23.30
2018-07-30T00:56:10.004Z,23.30
2018-07-30T00:58:38.993Z,23.30
2018-07-30T01:01:07.748Z,23.40
2018-07-30T01:06:05.407Z,23.30
2018-07-30T01:08:34.445Z,23.20
2018-07-30T01:11:03.219Z,23.30
2018-07-30T01:13:31.987Z,23.20
2018-07-30T01:16:00.695Z,23.20
2018-07-30T01:18:30.009Z,23.20
2018-07-30T01:20:58.779Z,23.20
2018-07-30T01:23:28.287Z,23.20
2018-07-30T01:25:57.110Z,23.10
2018-07-30T01:28:25.983Z,23.20
2018-07-30T01:30:55.823Z,23.10
2018-07-30T01:33:24.867Z,23.10
2018-07-30T01:35:53.890Z,23.10
2018-07-30T01:38:23.107Z,23.00
2018-07-30T01:40:51.864Z,23.00
2018-07-30T01:43:20.594Z,22.90
2018-07-30T01:45:49.364Z,22.80
2018-07-30T01:48:18.116Z,22.80
2018-07-30T01:53:15.716Z,22.90
2018-07-30T01:55:44.591Z,22.90
2018-07-30T01:58:13.368Z,22.90
2018-07-30T02:00:42.174Z,22.90
2018-07-30T02:03:11.211Z,22.90
2018-07-30T02:05:39.952Z,22.90
2018-07-30T02:08:08.692Z,22.90
2018-07-30T02:10:37.176Z,22.90
2018-07-30T02:13:06.028Z,22.90
2018-07-30T02:15:34.831Z,22.90
2018-07-30T02:18:03.873Z,22.90
2018-07-30T02:20:32.661Z,22.90
2018-07-30T02:23:01.651Z,22.90
2018-07-30T02:25:30.439Z,22.90
2018-07-30T02:27:59.218Z,22.90
2018-07-30T02:30:27.947Z,22.80
2018-07-30T02:32:56.651Z,22.80
2018-07-30T02:35:25.282Z,22.80
2018-07-30T02:37:54.174Z,22.80
2018-07-30T02:40:23.246Z,22.70
2018-07-30T02:42:52.056Z,22.70
2018-07-30T02:45:20.845Z,22.70
2018-07-30T02:47:50.043Z,22.70
2018-07-30T02:50:18.686Z,22.60
2018-07-30T02:52:47.454Z,22.60
2018-07-30T02:55:16.194Z,22.60
2018-07-30T02:57:45.004Z,22.60
2018-07-30T03:00:13.882Z,22.60
2018-07-30T03:02:42.703Z,22.70
2018-07-30T03:07:40.274Z,22.60
2018-07-30T03:10:09.132Z,22.50
2018-07-30T03:12:38.030Z,22.50
2018-07-30T03:15:06.979Z,22.50
2018-07-30T03:17:35.508Z,22.50
2018-07-30T03:20:04.699Z,22.50
2018-07-30T03:22:33.261Z,22.60
2018-07-30T03:25:02.073Z,22.50
2018-07-30T03:27:30.834Z,22.50
2018-07-30T03:29:59.889Z,22.40
2018-07-30T03:32:29.086Z,22.40
2018-07-30T03:34:57.811Z,22.30
2018-07-30T03:37:26.599Z,22.20
2018-07-30T03:39:55.670Z,22.10
2018-07-30T03:42:24.623Z,22.10
2018-07-30T03:44:53.702Z,22.00
2018-07-30T03:47:23.150Z,22.00
2018-07-30T03:49:51.870Z,22.00
2018-07-30T03:52:20.894Z,22.00
2018-07-30T03:54:49.858Z,22.00
2018-07-30T03:57:18.628Z,22.00
2018-07-30T03:59:47.324Z,22.00
2018-07-30T04:02:16.053Z,22.10
2018-07-30T04:04:44.823Z,22.10
2018-07-30T04:07:13.561Z,22.10
2018-07-30T04:09:42.287Z,22.10
2018-07-30T04:12:11.027Z,22.10
2018-07-30T04:14:39.739Z,22.10
2018-07-30T04:17:08.624Z,22.00
2018-07-30T04:19:37.375Z,21.90
2018-07-30T04:22:06.164Z,21.90
2018-07-30T04:24:35.122Z,21.80
2018-07-30T04:27:03.862Z,21.80
2018-07-30T04:29:32.338Z,21.80
2018-07-30T04:32:01.056Z,21.70
2018-07-30T04:34:29.553Z,21.80
2018-07-30T04:36:58.487Z,21.90
2018-07-30T04:39:27.207Z,21.90
2018-07-30T04:41:55.983Z,21.90
2018-07-30T04:44:24.485Z,21.90
2018-07-30T04:46:53.156Z,21.90
2018-07-30T04:49:22.913Z,22.00
2018-07-30T04:51:51.523Z,22.00
2018-07-30T04:54:20.066Z,22.00
2018-07-30T04:56:49.154Z,22.00
2018-07-30T04:59:18.113Z,22.00
2018-07-30T05:01:46.657Z,22.00
2018-07-30T05:04:15.423Z,22.10
2018-07-30T05:06:44.167Z,22.10
2018-07-30T05:09:12.991Z,22.20
2018-07-30T05:11:41.610Z,22.30
2018-07-30T05:16:38.746Z,22.30
2018-07-30T05:19:07.563Z,22.40
2018-07-30T05:21:36.328Z,22.40
2018-07-30T05:24:05.136Z,22.40
2018-07-30T05:26:34.139Z,22.50
2018-07-30T05:29:03.180Z,22.50
2018-07-30T05:31:32.216Z,22.50
2018-07-30T05:34:00.995Z,22.60
2018-07-30T05:36:29.541Z,22.60
2018-07-30T05:38:58.255Z,22.70
2018-07-30T05:41:27.042Z,22.70
2018-07-30T05:43:56.160Z,22.80
2018-07-30T05:46:25.087Z,22.90
2018-07-30T05:48:54.681Z,23.00
2018-07-30T05:51:23.623Z,23.10
2018-07-30T05:53:52.507Z,23.10
2018-07-30T05:56:21.252Z,23.20
2018-07-30T05:58:50.155Z,23.30
2018-07-30T06:01:19.238Z,23.30
2018-07-30T06:03:48.250Z,23.50
2018-07-30T06:06:17.015Z,23.50
2018-07-30T06:08:45.793Z,23.60
2018-07-30T06:11:14.690Z,23.70
2018-07-30T06:13:43.448Z,23.70
2018-07-30T06:16:12.244Z,23.80
2018-07-30T06:18:41.084Z,23.90
2018-07-30T06:21:10.146Z,24.00
2018-07-30T06:23:39.207Z,24.10
2018-07-30T06:26:08.325Z,24.20
2018-07-30T06:28:37.057Z,24.30
2018-07-30T06:31:06.220Z,24.40
2018-07-30T06:33:35.439Z,24.50
2018-07-30T06:36:04.260Z,24.60
2018-07-30T06:38:33.379Z,24.70
2018-07-30T06:41:02.397Z,24.80
2018-07-30T06:43:31.410Z,25.00
2018-07-30T06:46:00.176Z,25.10
2018-07-30T06:48:29.349Z,25.10
2018-07-30T06:50:58.271Z,25.30
2018-07-30T06:53:27.285Z,25.40
2018-07-30T06:55:56.324Z,25.30
2018-07-30T06:58:25.850Z,25.30
2018-07-30T07:00:54.678Z,25.40
2018-07-30T07:03:23.865Z,25.30
2018-07-30T07:05:52.726Z,25.40
2018-07-30T07:08:21.558Z,25.40
2018-07-30T07:10:50.386Z,25.40
2018-07-30T07:13:19.374Z,25.50
2018-07-30T07:15:48.214Z,25.50
2018-07-30T07:18:17.332Z,25.60
2018-07-30T07:20:46.261Z,25.70
2018-07-30T07:23:15.228Z,25.80
2018-07-30T07:25:44.330Z,25.90
2018-07-30T07:28:13.178Z,26.00
2018-07-30T07:30:41.716Z,26.00
2018-07-30T07:33:10.496Z,26.10
2018-07-30T07:35:39.351Z,26.30
2018-07-30T07:38:08.191Z,26.40
2018-07-30T07:40:37.232Z,26.50
2018-07-30T07:43:06.254Z,26.60
2018-07-30T07:45:35.315Z,26.60
2018-07-30T07:48:04.375Z,26.70
2018-07-30T07:50:33.252Z,26.80
2018-07-30T07:53:02.066Z,26.90
2018-07-30T07:55:30.850Z,27.00
2018-07-30T07:57:59.736Z,27.10
2018-07-30T08:00:28.588Z,27.20
2018-07-30T08:02:57.338Z,27.20
2018-07-30T08:05:26.554Z,27.30
2018-07-30T08:07:55.304Z,27.30
2018-07-30T08:10:23.897Z,27.40
2018-07-30T08:12:52.749Z,27.40
2018-07-30T08:15:21.638Z,27.40
2018-07-30T08:17:50.414Z,27.60
2018-07-30T08:20:19.167Z,27.70
2018-07-30T08:22:48.262Z,27.80
2018-07-30T08:25:17.303Z,27.90
2018-07-30T08:27:46.324Z,27.90
2018-07-30T08:30:15.402Z,28.00
2018-07-30T08:32:44.179Z,28.00
2018-07-30T08:35:13.034Z,27.90
2018-07-30T08:37:41.518Z,28.00
2018-07-30T08:40:10.286Z,28.20
2018-07-30T08:42:39.324Z,28.40
2018-07-30T08:45:08.373Z,28.50
2018-07-30T08:47:37.687Z,28.60
2018-07-30T08:50:06.566Z,28.50
2018-07-30T08:52:35.519Z,28.60
2018-07-30T08:55:04.685Z,28.70
2018-07-30T08:57:33.419Z,28.80
2018-07-30T09:00:02.234Z,28.80
2018-07-30T09:02:31.055Z,28.80
2018-07-30T09:05:00.306Z,28.80
2018-07-30T09:07:29.503Z,29.00
2018-07-30T09:09:58.266Z,29.10
2018-07-30T09:12:27.229Z,29.20
2018-07-30T09:14:56.408Z,29.30
2018-07-30T09:17:25.597Z,29.30
2018-07-30T09:19:54.395Z,29.40
2018-07-30T09:22:23.572Z,29.40
2018-07-30T09:24:52.878Z,29.40
2018-07-30T09:27:21.826Z,29.40
2018-07-30T09:29:50.785Z,29.60
2018-07-30T09:32:19.589Z,29.70
2018-07-30T09:34:48.463Z,29.60
2018-07-30T09:37:17.562Z,29.70
2018-07-30T09:39:46.376Z,29.80
2018-07-30T09:42:15.514Z,29.70
2018-07-30T09:44:44.732Z,29.70
2018-07-30T09:47:13.667Z,29.60
2018-07-30T09:49:42.479Z,29.70
2018-07-30T09:52:11.543Z,29.80
2018-07-30T09:54:40.347Z,29.80
2018-07-30T09:57:09.442Z,29.90
2018-07-30T09:59:38.024Z,29.90
2018-07-30T10:02:06.873Z,30.00
2018-07-30T10:04:35.639Z,30.00
2018-07-30T10:07:04.760Z,29.90
2018-07-30T10:09:33.582Z,30.00
2018-07-30T10:12:02.377Z,30.10
2018-07-30T10:14:31.093Z,30.10
2018-07-30T10:16:59.991Z,30.10
2018-07-30T10:19:28.760Z,30.10
2018-07-30T10:21:57.525Z,30.20
2018-07-30T10:24:26.647Z,30.10
2018-07-30T10:26:55.355Z,30.10
2018-07-30T10:29:23.986Z,30.20
2018-07-30T10:31:52.754Z,30.30
2018-07-30T10:34:21.594Z,30.30
2018-07-30T10:36:50.470Z,30.30
2018-07-30T10:39:19.524Z,30.30
2018-07-30T10:41:48.569Z,30.30
2018-07-30T10:44:17.741Z,30.30
2018-07-30T10:46:46.536Z,30.30
2018-07-30T10:49:15.693Z,30.40
2018-07-30T10:51:44.455Z,30.40
2018-07-30T10:54:13.419Z,30.40
2018-07-30T10:56:41.951Z,30.40
2018-07-30T10:59:10.751Z,30.40
2018-07-30T11:01:39.555Z,30.30
2018-07-30T11:04:08.583Z,30.30
2018-07-30T11:06:37.643Z,30.30
2018-07-30T11:09:08.235Z,30.40
2018-07-30T11:11:37.032Z,30.20
2018-07-30T11:14:06.184Z,30.10
2018-07-30T11:16:34.967Z,30.00
2018-07-30T11:19:04.295Z,30.20
2018-07-30T11:21:33.113Z,30.40
2018-07-30T11:24:02.029Z,30.60
2018-07-30T11:26:30.880Z,30.80
2018-07-30T11:28:59.845Z,30.90
2018-07-30T11:31:28.671Z,30.80
2018-07-30T11:33:57.438Z,30.80
2018-07-30T11:36:25.961Z,30.90
2018-07-30T11:38:54.763Z,31.00
2018-07-30T11:41:23.983Z,31.00
2018-07-30T11:43:52.800Z,31.10
2018-07-30T11:46:21.848Z,31.30
2018-07-30T11:48:50.635Z,31.30
2018-07-30T11:51:19.543Z,31.30
2018-07-30T11:53:48.578Z,31.20
2018-07-30T11:56:18.041Z,31.00
2018-07-30T11:58:47.663Z,31.00
2018-07-30T12:01:16.484Z,31.20
2018-07-30T12:03:45.990Z,31.30
2018-07-30T12:06:14.789Z,31.10
2018-07-30T12:08:44.062Z,30.80
2018-07-30T12:11:13.103Z,30.70
2018-07-30T12:13:41.833Z,30.40
2018-07-30T12:16:10.751Z,30.30
2018-07-30T12:18:39.926Z,30.20
2018-07-30T12:21:08.938Z,30.20
2018-07-30T12:23:38.091Z,30.40
2018-07-30T12:26:07.687Z,30.70
2018-07-30T12:28:36.780Z,31.00
2018-07-30T12:31:05.807Z,31.30
2018-07-30T12:33:34.770Z,31.60
2018-07-30T12:36:03.494Z,31.80
2018-07-30T12:38:32.016Z,31.90
2018-07-30T12:41:00.774Z,31.80
2018-07-30T12:43:29.578Z,31.70
2018-07-30T12:45:58.628Z,31.50
2018-07-30T12:48:27.927Z,31.30
2018-07-30T12:50:56.716Z,31.60
2018-07-30T12:53:25.857Z,31.90
2018-07-30T12:55:54.587Z,32.30
2018-07-30T12:58:24.235Z,32.60
2018-07-30T13:00:53.051Z,32.90
2018-07-30T13:03:21.797Z,33.20
2018-07-30T13:05:50.547Z,33.50
2018-07-30T13:08:19.382Z,33.70
2018-07-30T13:10:48.351Z,33.80
2018-07-30T13:13:17.166Z,34.00
2018-07-30T13:15:45.990Z,34.10
2018-07-30T13:18:14.812Z,34.20
2018-07-30T13:20:43.591Z,34.20
2018-07-30T13:23:12.375Z,34.30
2018-07-30T13:25:41.125Z,34.50
2018-07-30T13:28:09.988Z,34.60
2018-07-30T13:30:38.732Z,34.60
2018-07-30T13:33:07.766Z,34.80
2018-07-30T13:35:36.551Z,35.00
2018-07-30T13:38:06.038Z,35.10
2018-07-30T13:40:34.923Z,34.80
2018-07-30T13:43:03.671Z,34.60
2018-07-30T13:45:32.288Z,34.60
2018-07-30T13:48:01.436Z,34.50
2018-07-30T13:50:30.853Z,34.80
2018-07-30T13:52:59.666Z,35.00
2018-07-30T13:55:28.176Z,35.40
2018-07-30T13:57:56.902Z,35.50
2018-07-30T14:00:25.646Z,35.70
2018-07-30T14:02:54.350Z,35.50
2018-07-30T14:05:23.906Z,35.60
2018-07-30T14:07:52.610Z,35.70
2018-07-30T14:10:21.400Z,36.00
2018-07-30T14:12:50.230Z,36.20
2018-07-30T14:15:19.208Z,36.40
2018-07-30T14:17:48.078Z,36.70
2018-07-30T14:20:17.092Z,37.00
2018-07-30T14:22:45.969Z,37.10
2018-07-30T14:25:14.721Z,37.10
2018-07-30T14:27:43.474Z,37.10
2018-07-30T14:30:12.240Z,37.30
2018-07-30T14:32:41.039Z,37.60
2018-07-30T14:35:09.859Z,37.60
2018-07-30T14:37:38.318Z,37.60
2018-07-30T14:40:10.468Z,37.70
2018-07-30T14:42:39.358Z,37.60
2018-07-30T14:45:08.254Z,37.60
2018-07-30T14:47:37.353Z,37.30
2018-07-30T14:50:06.680Z,37.30
2018-07-30T14:52:35.578Z,37.30
2018-07-30T14:55:04.690Z,37.10
2018-07-30T14:57:33.520Z,36.90
2018-07-30T15:00:02.240Z,37.00
2018-07-30T15:02:31.035Z,37.00
2018-07-30T15:04:59.815Z,36.60
2018-07-30T15:07:28.261Z,36.40
2018-07-30T15:09:57.134Z,36.20
2018-07-30T15:12:26.287Z,36.10
2018-07-30T15:14:55.726Z,36.20
2018-07-30T15:17:24.368Z,36.20
2018-07-30T15:19:53.161Z,36.30
2018-07-30T15:22:21.870Z,36.20
2018-07-30T15:24:50.914Z,35.70
2018-07-30T15:27:20.006Z,35.00
2018-07-30T15:29:48.827Z,34.60
2018-07-30T15:32:17.867Z,34.30
2018-07-30T15:34:46.904Z,33.70
2018-07-30T15:37:16.020Z,33.40
2018-07-30T15:39:44.779Z,33.30
2018-07-30T15:42:13.492Z,33.30
2018-07-30T15:44:42.112Z,33.70
2018-07-30T15:47:10.847Z,33.60
2018-07-30T15:49:39.991Z,33.60
2018-07-30T15:52:09.078Z,33.60
2018-07-30T15:54:37.849Z,33.40
2018-07-30T15:57:07.051Z,33.50
2018-07-30T15:59:35.762Z,33.50
2018-07-30T16:02:04.552Z,33.30
2018-07-30T16:04:33.386Z,33.20
2018-07-30T16:07:02.102Z,33.00
2018-07-30T16:09:30.910Z,32.90
2018-07-30T16:11:59.999Z,32.70
2018-07-30T16:14:29.045Z,32.60
2018-07-30T16:16:57.895Z,32.50
2018-07-30T16:19:26.747Z,32.50
2018-07-30T16:21:55.637Z,32.40
2018-07-30T16:24:24.431Z,32.30
2018-07-30T16:26:53.223Z,32.20
2018-07-30T16:29:21.975Z,32.10
2018-07-30T16:31:51.031Z,32.10
2018-07-30T16:34:20.131Z,31.90
2018-07-30T16:36:48.937Z,31.70
2018-07-30T16:39:18.027Z,31.60
2018-07-30T16:41:46.867Z,31.50
2018-07-30T16:44:15.758Z,31.60
2018-07-30T16:46:44.663Z,31.60
2018-07-30T16:49:13.561Z,31.60
2018-07-30T16:51:42.069Z,31.70
2018-07-30T16:54:11.201Z,31.70
2018-07-30T16:56:39.948Z,31.70
2018-07-30T16:59:09.074Z,31.60
2018-07-30T17:01:38.173Z,31.60
2018-07-30T17:04:07.071Z,31.60
2018-07-30T17:06:36.031Z,31.50
2018-07-30T17:09:08.449Z,31.50
2018-07-30T17:11:37.243Z,31.50
2018-07-30T17:14:06.131Z,31.50
2018-07-30T17:16:35.230Z,31.50
2018-07-30T17:19:04.443Z,31.50
2018-07-30T17:21:33.264Z,31.40
2018-07-30T17:24:02.051Z,31.70
2018-07-30T17:26:30.567Z,31.70
2018-07-30T17:28:59.389Z,31.70
2018-07-30T17:31:28.340Z,31.60
2018-07-30T17:33:57.137Z,31.30
2018-07-30T17:36:26.266Z,31.20
2018-07-30T17:38:55.011Z,31.10
2018-07-30T17:41:24.207Z,30.90
2018-07-30T17:43:53.068Z,30.80
2018-07-30T17:46:22.315Z,30.60
2018-07-30T17:48:51.582Z,30.70
2018-07-30T17:51:20.469Z,30.90
2018-07-30T17:53:49.315Z,30.80
2018-07-30T17:56:18.208Z,30.70
2018-07-30T17:58:47.222Z,30.60
2018-07-30T18:01:16.216Z,30.50
2018-07-30T18:03:44.954Z,30.50
2018-07-30T18:06:13.760Z,30.30
2018-07-30T18:08:42.415Z,30.20
2018-07-30T18:11:11.197Z,30.10
2018-07-30T18:13:40.207Z,30.00
2018-07-30T18:16:09.064Z,29.80
2018-07-30T18:18:38.164Z,29.70
2018-07-30T18:21:07.195Z,29.60
2018-07-30T18:23:36.281Z,29.50
2018-07-30T18:26:05.175Z,29.40
2018-07-30T18:28:34.291Z,29.20
2018-07-30T18:31:03.035Z,29.10
2018-07-30T18:33:31.803Z,29.10
2018-07-30T18:36:00.802Z,29.00
2018-07-30T18:38:29.561Z,28.90
2018-07-30T18:40:58.280Z,28.90
2018-07-30T18:43:27.051Z,28.90
2018-07-30T18:45:55.844Z,28.80
2018-07-30T18:48:24.632Z,28.80
2018-07-30T18:50:53.452Z,28.70
2018-07-30T18:53:22.432Z,28.60
2018-07-30T18:55:51.244Z,28.60
2018-07-30T18:58:20.258Z,28.50
2018-07-30T19:00:49.026Z,28.50
2018-07-30T19:03:17.882Z,28.40
2018-07-30T19:05:46.768Z,28.40
2018-07-30T19:08:15.511Z,28.30
2018-07-30T19:10:44.272Z,28.30
2018-07-30T19:13:13.463Z,28.20
2018-07-30T19:15:42.257Z,28.10
2018-07-30T19:18:11.301Z,28.10
2018-07-30T19:20:41.220Z,28.00
2018-07-30T19:23:09.984Z,27.90
2018-07-30T19:25:38.539Z,27.90
2018-07-30T19:28:07.329Z,27.80
2018-07-30T19:30:36.343Z,27.70
2018-07-30T19:33:05.374Z,27.70
2018-07-30T19:35:34.294Z,27.60
2018-07-30T19:38:03.436Z,27.60
2018-07-30T19:40:32.052Z,27.50
2018-07-30T19:43:00.888Z,27.30
2018-07-30T19:45:29.794Z,27.20
2018-07-30T19:47:58.600Z,27.10
2018-07-30T19:50:27.921Z,27.00
2018-07-30T19:52:56.815Z,26.90
2018-07-30T19:55:26.016Z,26.80
2018-07-30T19:57:55.776Z,26.70
2018-07-30T20:00:24.858Z,26.70
2018-07-30T20:02:53.677Z,26.60
2018-07-30T20:05:22.657Z,26.50
2018-07-30T20:07:51.991Z,26.50
2018-07-30T20:10:20.859Z,26.40
2018-07-30T20:12:49.611Z,26.30
2018-07-30T20:15:18.459Z,26.20
2018-07-30T20:17:47.565Z,26.10
2018-07-30T20:20:17.749Z,26.10
2018-07-30T20:22:46.868Z,26.00
2018-07-30T20:25:16.016Z,25.90
2018-07-30T20:27:45.331Z,25.90
2018-07-30T20:30:14.398Z,25.80
2018-07-30T20:32:44.892Z,25.80
2018-07-30T20:35:13.727Z,25.80
2018-07-30T20:37:42.983Z,25.80
2018-07-30T20:40:11.981Z,25.80
2018-07-30T20:42:40.611Z,25.80
2018-07-30T20:45:09.468Z,25.60
2018-07-30T20:47:38.307Z,25.80
2018-07-30T20:50:07.337Z,25.80
2018-07-30T20:52:36.460Z,25.80
2018-07-30T20:55:05.267Z,25.80
2018-07-30T20:57:34.366Z,25.70
2018-07-30T21:00:03.441Z,25.70
2018-07-30T21:02:32.534Z,25.60
2018-07-30T21:05:01.598Z,25.60
2018-07-30T21:07:30.696Z,25.50
2018-07-30T21:09:59.552Z,25.50
2018-07-30T21:12:28.304Z,25.50
2018-07-30T21:14:57.354Z,25.50
2018-07-30T21:17:26.362Z,25.40
2018-07-30T21:19:55.603Z,25.40
2018-07-30T21:22:24.811Z,25.30
2018-07-30T21:24:53.547Z,25.30
2018-07-30T21:27:22.579Z,25.30
2018-07-30T21:29:51.395Z,25.30
2018-07-30T21:32:20.559Z,25.30
2018-07-30T21:34:49.516Z,25.30
2018-07-30T21:37:18.614Z,25.30
2018-07-30T21:39:47.628Z,25.30
2018-07-30T21:42:16.641Z,25.20
2018-07-30T21:44:45.388Z,25.10
2018-07-30T21:47:14.475Z,25.10
2018-07-30T21:49:43.340Z,25.10
2018-07-30T21:52:12.078Z,25.10
2018-07-30T21:54:40.725Z,25.00
2018-07-30T21:57:09.485Z,25.10
2018-07-30T21:59:41.444Z,25.10
2018-07-30T22:02:10.750Z,25.10
2018-07-30T22:04:39.518Z,25.00
2018-07-30T22:07:08.645Z,25.00
2018-07-30T22:09:37.395Z,25.10
2018-07-30T22:12:06.664Z,25.00
2018-07-30T22:14:35.614Z,25.00
2018-07-30T22:17:04.431Z,25.00
2018-07-30T22:19:32.890Z,25.00
2018-07-30T22:22:01.726Z,25.00
2018-07-30T22:24:30.680Z,25.00
2018-07-30T22:26:59.729Z,24.90
2018-07-30T22:29:28.641Z,24.90
2018-07-30T22:31:57.395Z,24.80
2018-07-30T22:34:26.173Z,24.80
2018-07-30T22:36:54.955Z,24.80
2018-07-30T22:39:24.676Z,24.80
2018-07-30T22:41:53.401Z,24.70
2018-07-30T22:44:22.143Z,24.60
2018-07-30T22:46:50.924Z,24.60
2018-07-30T22:49:19.724Z,24.60
2018-07-30T22:51:48.465Z,24.60
2018-07-30T22:54:17.480Z,24.60
2018-07-30T22:56:46.462Z,24.60
2018-07-30T22:59:15.528Z,24.60
2018-07-30T23:01:44.560Z,24.60
2018-07-30T23:04:13.673Z,24.60
2018-07-30T23:06:42.711Z,24.60
2018-07-30T23:09:11.425Z,24.50
2018-07-30T23:11:40.256Z,24.50
2018-07-30T23:14:09.090Z,24.40
2018-07-30T23:16:37.837Z,24.30
2018-07-30T23:19:06.642Z,24.30
2018-07-30T23:21:35.631Z,24.30
2018-07-30T23:24:04.725Z,24.20
2018-07-30T23:26:33.785Z,24.20
2018-07-30T23:29:02.827Z,24.20
2018-07-30T23:31:31.679Z,24.20
2018-07-30T23:36:29.221Z,24.20
2018-07-30T23:38:57.960Z,24.20
2018-07-30T23:41:26.707Z,24.10
2018-07-30T23:43:55.500Z,24.10
2018-07-30T23:46:24.803Z,24.10
2018-07-30T23:48:53.680Z,24.10
2018-07-30T23:51:22.671Z,24.00
2018-07-30T23:53:51.950Z,24.00
2018-07-30T23:56:20.879Z,24.00
2018-07-30T23:58:49.584Z,24.00
